Time;durP1;ratioP1;P1;durP2;ratioP2;P2;SDS_P1;SDS_P2;PMS_P1;PMS_P2;Temp;Humidity;BMP_temperature;BMP_pressure;BME280_temperature;BME280_humidity;BME280_pressure;Samples;Min_cycle;Max_cycle;Signal;HPM_P1;HPM_P2
2023/09/25 05:46:13;;;;;;;2.37;2.27;;;;;;;21.32;100.00;99667.38;4700294;30;20346;-70
2023/09/25 05:55:12;;;;;;;1.97;1.87;;;;;;;21.27;100.00;99675.53;4801493;29;20217;-68
2023/09/25 05:57:39;;;;;;;2.37;2.17;;;;;;;21.29;100.00;99665.81;4917078;29;20644;-69
2023/09/25 06:00:11;;;;;;;4.43;2.13;;;;;;;21.39;100.00;99673.81;4957624;28;20200;-72
2023/09/25 06:02:39;;;;;;;2.30;2.20;;;;;;;21.51;100.00;99672.97;4959274;28;20648;-69
2023/09/25 06:05:06;;;;;;;2.20;2.10;;;;;;;21.64;100.00;99673.78;4948233;28;20227;-69
2023/09/25 06:07:35;;;;;;;2.00;1.90;;;;;;;21.71;100.00;99684.59;4964973;28;20604;-69
2023/09/25 06:10:02;;;;;;;1.73;1.67;;;;;;;21.74;100.00;99674.78;4955311;28;20213;-68
2023/09/25 06:12:29;;;;;;;2.07;1.97;;;;;;;21.83;100.00;99679.34;4967331;28;20202;-68
2023/09/25 06:14:56;;;;;;;2.23;2.13;;;;;;;21.87;100.00;99688.59;4985517;28;20210;-74
2023/09/25 06:17:26;;;;;;;4.67;2.40;;;;;;;21.89;100.00;99693.75;5000328;28;20265;-66
2023/09/25 06:19:54;;;;;;;2.07;1.97;;;;;;;21.94;100.00;99692.47;5029138;28;20194;-68
2023/09/25 06:22:22;;;;;;;2.80;2.70;;;;;;;22.06;100.00;99695.16;5077797;28;20196;-66
2023/09/25 06:24:49;;;;;;;3.00;2.80;;;;;;;22.08;100.00;99695.84;5086954;28;20619;-67
2023/09/25 06:27:16;;;;;;;1.97;1.87;;;;;;;22.16;100.00;99693.53;5082786;28;20718;-67
2023/09/25 06:29:43;;;;;;;2.53;2.43;;;;;;;21.99;100.00;99660.81;5089791;28;20264;-67
2023/09/25 06:32:10;;;;;;;3.80;1.70;;;;;;;22.22;100.00;99685.25;5095764;28;20196;-67
2023/09/25 06:34:38;;;;;;;1.73;1.63;;;;;;;22.42;100.00;99692.47;5093074;28;20727;-68
2023/09/25 06:37:07;;;;;;;2.43;2.33;;;;;;;22.56;100.00;99694.84;5077197;28;20199;-68
2023/09/25 06:39:34;;;;;;;1.70;1.67;;;;;;;22.74;100.00;99703.97;5092818;28;20227;-68
2023/09/25 06:42:01;;;;;;;2.13;2.00;;;;;;;22.91;100.00;99706.13;5086264;28;20717;-67
2023/09/25 06:44:28;;;;;;;2.00;1.90;;;;;;;23.16;100.00;99707.72;5092263;28;20253;-64
2023/09/25 06:46:55;;;;;;;1.43;1.33;;;;;;;23.33;100.00;99709.00;5093393;28;20293;-66
2023/09/25 06:49:23;;;;;;;1.57;1.50;;;;;;;23.32;100.00;99704.75;5089374;28;20212;-65
2023/09/25 06:51:49;;;;;;;1.70;1.70;;;;;;;23.23;100.00;99713.31;5090106;28;20632;-68
2023/09/25 06:54:18;;;;;;;1.33;1.33;;;;;;;23.31;100.00;99713.53;5081449;28;20214;-69
2023/09/25 06:56:44;;;;;;;1.43;1.40;;;;;;;23.48;100.00;99710.50;5088420;28;20200;-68
2023/09/25 06:59:11;;;;;;;1.53;1.50;;;;;;;23.64;100.00;99710.13;5091483;28;20310;-68
2023/09/25 07:01:38;;;;;;;1.37;1.37;;;;;;;23.70;100.00;99702.59;5087095;28;20274;-69
2023/09/25 07:04:06;;;;;;;2.10;2.00;;;;;;;23.75;100.00;99712.72;5084968;28;20677;-69
2023/09/25 07:06:33;;;;;;;6.40;6.00;;;;;;;23.74;100.00;99701.41;5089430;28;20630;-68
2023/09/25 07:09:02;;;;;;;4.23;3.17;;;;;;;23.90;100.00;99712.31;5080576;28;20228;-69
2023/09/25 07:11:30;;;;;;;2.97;2.77;;;;;;;24.09;100.00;99716.91;5092580;28;20586;-68
2023/09/25 07:13:57;;;;;;;2.27;2.17;;;;;;;24.18;100.00;99710.94;5088774;28;20230;-68
2023/09/25 07:16:24;;;;;;;1.83;1.73;;;;;;;24.28;99.49;99711.03;5082508;28;20226;-69
2023/09/25 07:18:50;;;;;;;1.90;1.80;;;;;;;24.43;100.00;99715.00;5093881;28;20215;-69
2023/09/25 07:21:17;;;;;;;2.87;1.73;;;;;;;24.59;98.68;99718.03;5086699;28;20645;-68
2023/09/25 07:23:44;;;;;;;2.07;1.97;;;;;;;24.80;96.32;99712.81;5090539;28;20196;-70
2023/09/25 07:26:11;;;;;;;2.10;2.00;;;;;;;24.86;95.17;99714.94;5079147;28;20200;-70
2023/09/25 07:28:39;;;;;;;1.00;1.00;;;;;;;24.85;94.48;99721.13;5076997;28;20204;-69
2023/09/25 07:31:06;;;;;;;1.77;1.67;;;;;;;24.86;93.42;99720.19;5077604;28;20208;-70
2023/09/25 07:33:34;;;;;;;4.27;1.30;;;;;;;24.87;93.18;99724.47;5085343;28;20196;-69
2023/09/25 07:36:01;;;;;;;3.00;1.77;;;;;;;24.79;93.17;99722.47;5082492;28;20274;-69
2023/09/25 07:38:28;;;;;;;1.93;1.83;;;;;;;24.78;92.22;99735.72;5071963;28;20219;-71
2023/09/25 07:40:57;;;;;;;1.43;1.43;;;;;;;24.74;92.68;99729.88;5076792;28;20250;-68
2023/09/25 07:43:23;;;;;;;1.67;1.57;;;;;;;24.86;92.59;99728.88;5091630;28;20273;-69
2023/09/25 07:45:54;;;;;;;2.93;1.80;;;;;;;24.85;92.43;99729.84;5091910;28;20207;-69
2023/09/25 07:48:21;;;;;;;1.67;1.57;;;;;;;24.74;90.38;99729.88;5080563;28;20196;-72
2023/09/25 07:50:48;;;;;;;1.73;1.63;;;;;;;24.71;91.06;99731.94;5085278;28;20687;-68
2023/09/25 07:53:15;;;;;;;1.90;1.80;;;;;;;24.64;90.35;99715.03;5077011;28;20200;-71
2023/09/25 07:55:42;;;;;;;1.73;1.63;;;;;;;24.68;90.58;99730.41;5084674;28;20200;-70
2023/09/25 07:58:11;;;;;;;1.50;1.50;;;;;;;24.81;90.18;99731.03;5091027;28;20730;-72
2023/09/25 08:00:40;;;;;;;1.80;1.70;;;;;;;24.76;89.41;99727.13;5079219;28;20232;-69
2023/09/25 08:03:08;;;;;;;1.60;1.50;;;;;;;24.87;89.67;99730.56;5085373;28;20352;-69
2023/09/25 08:05:37;;;;;;;1.60;1.57;;;;;;;24.95;89.71;99722.88;5086669;28;20282;-69
2023/09/25 08:08:05;;;;;;;1.73;1.43;;;;;;;25.06;88.93;99725.41;5085382;28;20255;-69
2023/09/25 08:10:32;;;;;;;2.10;2.00;;;;;;;25.17;89.44;99721.06;5090469;28;20656;-68
2023/09/25 08:12:59;;;;;;;5.97;1.80;;;;;;;25.23;86.82;99726.63;5085768;28;20222;-68
2023/09/25 08:15:27;;;;;;;1.70;1.63;;;;;;;25.28;87.48;99723.59;5082947;28;20253;-69
2023/09/25 08:17:53;;;;;;;3.33;1.87;;;;;;;25.23;87.63;99729.25;5083146;28;20666;-68
2023/09/25 08:20:22;;;;;;;1.67;1.43;;;;;;;25.38;87.84;99721.84;5081029;28;20210;-69
2023/09/25 08:22:50;;;;;;;3.57;1.57;;;;;;;25.50;88.41;99728.66;5079042;28;20228;-68
2023/09/25 08:25:17;;;;;;;1.73;1.63;;;;;;;25.27;85.95;99711.41;5087014;28;20260;-70
2023/09/25 08:27:44;;;;;;;1.37;1.37;;;;;;;25.28;86.59;99718.34;5085486;28;20191;-70
2023/09/25 08:30:13;;;;;;;1.83;1.73;;;;;;;25.16;87.11;99724.63;5087401;28;20199;-68
2023/09/25 08:32:40;;;;;;;1.50;1.50;;;;;;;25.19;87.48;99729.63;5092634;28;20211;-68
2023/09/25 08:35:09;;;;;;;1.70;1.60;;;;;;;25.37;88.34;99723.63;5089229;28;20234;-68
2023/09/25 08:37:39;;;;;;;1.57;1.47;;;;;;;25.45;85.47;99725.59;5091948;28;20199;-69
2023/09/25 08:40:09;;;;;;;1.90;1.80;;;;;;;25.28;85.66;99713.09;5092013;28;20286;-70
2023/09/25 08:42:37;;;;;;;1.43;1.43;;;;;;;25.28;86.80;99718.34;5083166;28;20722;-70
2023/09/25 08:45:05;;;;;;;1.60;1.50;;;;;;;25.38;85.51;99719.22;5065651;28;20290;-68
2023/09/25 08:47:34;;;;;;;1.30;1.23;;;;;;;25.57;86.74;99714.06;5079110;28;20204;-68
2023/09/25 08:50:01;;;;;;;1.30;1.20;;;;;;;25.76;84.61;99719.34;5085154;28;20260;-68
2023/09/25 08:52:29;;;;;;;1.30;1.30;;;;;;;25.78;83.37;99701.69;5088216;28;20227;-69
2023/09/25 08:54:59;;;;;;;1.50;1.40;;;;;;;25.84;86.00;99706.41;5076957;28;20233;-69
2023/09/25 08:57:25;;;;;;;2.33;2.23;;;;;;;26.02;85.05;99709.19;5085394;28;20196;-68
2023/09/25 08:59:52;;;;;;;1.47;1.47;;;;;;;26.06;83.40;99713.19;5086201;28;20212;-68
2023/09/25 09:02:20;;;;;;;1.90;1.80;;;;;;;25.96;83.14;99700.06;5088153;28;20579;-68
2023/09/25 09:04:47;;;;;;;1.87;1.73;;;;;;;26.22;83.66;99710.06;5090682;28;20207;-69
2023/09/25 09:07:15;;;;;;;1.70;1.60;;;;;;;26.34;82.03;99703.69;5083594;28;20663;-67
2023/09/25 09:09:43;;;;;;;1.47;1.47;;;;;;;26.22;82.15;99683.78;5092399;28;20575;-68
2023/09/25 09:12:11;;;;;;;2.03;1.90;;;;;;;26.29;80.22;99711.16;5091952;28;20211;-70
2023/09/25 09:14:40;;;;;;;2.20;1.57;;;;;;;26.33;80.56;99699.41;5082341;28;20218;-69
2023/09/25 09:17:09;;;;;;;1.77;1.67;;;;;;;26.45;81.01;99695.66;5073418;28;20199;-68
2023/09/25 09:19:38;;;;;;;1.90;1.80;;;;;;;26.70;81.42;99699.50;5086887;28;20790;-68
2023/09/25 09:22:06;;;;;;;2.40;1.80;;;;;;;26.93;80.28;99695.59;5077888;28;20208;-68
2023/09/25 09:24:35;;;;;;;1.60;1.50;;;;;;;27.13;80.24;99698.06;5081911;28;20200;-70
2023/09/25 09:27:06;;;;;;;1.43;1.43;;;;;;;27.11;76.94;99699.13;5082182;28;20610;-69
2023/09/25 09:29:37;;;;;;;2.30;2.20;;;;;;;26.99;76.00;99701.13;5077510;28;20196;-69
2023/09/25 09:32:05;;;;;;;1.83;1.73;;;;;;;26.96;76.38;99701.41;5078385;28;20212;-70
2023/09/25 09:34:32;;;;;;;2.00;1.80;;;;;;;27.00;76.90;99697.53;5077684;28;20195;-70
2023/09/25 09:36:59;;;;;;;1.90;1.80;;;;;;;27.07;77.47;99688.09;5078030;28;20262;-70
2023/09/25 09:39:26;;;;;;;1.43;1.23;;;;;;;27.19;76.96;99695.81;5087693;28;20710;-70
2023/09/25 09:41:54;;;;;;;1.67;1.60;;;;;;;27.13;75.92;99692.78;5087997;28;20196;-68
2023/09/25 09:44:21;;;;;;;1.40;1.40;;;;;;;27.20;75.92;99689.56;5085684;28;20211;-68
2023/09/25 09:46:51;;;;;;;1.73;1.63;;;;;;;27.28;76.29;99689.66;5079040;28;20253;-68
2023/09/25 09:49:20;;;;;;;1.57;1.53;;;;;;;27.09;74.82;99683.50;5082948;28;20636;-68
2023/09/25 09:51:49;;;;;;;2.10;1.30;;;;;;;27.10;75.43;99682.53;5073061;28;20287;-70
2023/09/25 09:54:19;;;;;;;1.47;1.37;;;;;;;27.01;75.64;99682.59;5070332;28;20204;-68
2023/09/25 09:56:48;;;;;;;1.97;1.60;;;;;;;26.96;76.58;99667.22;5081786;28;20210;-69
2023/09/25 09:59:15;;;;;;;1.40;1.40;;;;;;;27.14;77.35;99680.47;5084294;28;20310;-68
2023/09/25 10:01:44;;;;;;;1.47;1.47;;;;;;;27.21;76.47;99675.41;5077807;28;20207;-69
2023/09/25 10:04:13;;;;;;;1.77;1.67;;;;;;;27.10;75.27;99677.28;5083142;28;20261;-68
2023/09/25 10:06:49;;;;;;;1.70;1.60;;;;;;;27.04;75.31;99674.41;5082302;28;20663;-68
2023/09/25 10:09:16;;;;;;;1.50;1.40;;;;;;;26.92;75.92;99668.47;5090558;28;20302;-67
2023/09/25 10:11:44;;;;;;;1.50;1.50;;;;;;;26.98;76.29;99673.16;5083213;28;21523;-68
2023/09/25 10:14:11;;;;;;;6.10;1.60;;;;;;;27.13;77.00;99665.63;5086233;28;20279;-69
2023/09/25 10:16:58;;;;;;;2.17;1.77;;;;;;;27.22;76.35;99664.75;5075683;28;20294;-67
2023/09/25 10:19:45;;;;;;;1.80;1.70;;;;;;;27.17;74.19;99666.16;5082484;28;20223;-68
2023/09/25 10:22:13;;;;;;;1.20;1.20;;;;;;;27.16;75.71;99664.50;5082390;28;20276;-68
2023/09/25 10:24:42;;;;;;;1.30;1.30;;;;;;;27.19;75.27;99653.69;5090393;28;20286;-67
2023/09/25 10:27:11;;;;;;;1.20;1.20;;;;;;;27.26;74.59;99662.66;5085768;28;20196;-68
2023/09/25 10:29:38;;;;;;;1.53;1.43;;;;;;;27.32;75.02;99659.44;5083433;28;20536;-69
2023/09/25 10:32:09;;;;;;;1.73;1.63;;;;;;;27.47;76.83;99652.72;5082263;28;20287;-69
2023/09/25 10:34:39;;;;;;;1.40;1.33;;;;;;;27.56;73.58;99641.34;5078803;28;20575;-68
2023/09/25 10:37:06;;;;;;;1.63;1.53;;;;;;;27.63;73.46;99648.47;5084067;28;20753;-69
2023/09/25 10:39:35;;;;;;;1.43;1.43;;;;;;;27.73;73.11;99648.41;5078998;28;20222;-68
2023/09/25 10:42:07;;;;;;;1.77;1.67;;;;;;;27.87;74.08;99642.63;5084110;28;20626;-68
2023/09/25 10:44:36;;;;;;;1.83;1.73;;;;;;;27.97;74.19;99640.75;5074654;28;20204;-68
2023/09/25 10:47:06;;;;;;;1.73;1.50;;;;;;;28.05;74.64;99625.03;5085201;28;20207;-68
2023/09/25 10:49:35;;;;;;;1.90;1.70;;;;;;;28.18;71.46;99632.53;5067940;28;20224;-68
2023/09/25 10:52:04;;;;;;;1.57;1.57;;;;;;;28.38;73.22;99638.47;5084118;28;20201;-68
2023/09/25 10:54:31;;;;;;;2.10;1.50;;;;;;;28.47;73.70;99634.91;5078609;28;20645;-68
2023/09/25 10:56:59;;;;;;;1.50;1.40;;;;;;;28.45;70.60;99621.06;5074245;28;20207;-69
2023/09/25 10:59:26;;;;;;;1.40;1.30;;;;;;;28.65;71.86;99625.16;5083520;28;20302;-69
2023/09/25 11:01:54;;;;;;;1.50;1.50;;;;;;;28.69;69.97;99621.25;5085814;28;20200;-71
2023/09/25 11:04:20;;;;;;;1.30;1.30;;;;;;;28.58;67.17;99618.84;5078394;28;20668;-68
2023/09/25 11:06:48;;;;;;;2.77;1.50;;;;;;;28.53;67.65;99616.66;5062733;28;20240;-74
2023/09/25 11:09:18;;;;;;;1.03;1.03;;;;;;;28.46;67.19;99604.25;5078429;28;20707;-68
2023/09/25 11:11:45;;;;;;;1.37;1.37;;;;;;;28.50;66.75;99610.84;5080315;28;20196;-69
2023/09/25 11:14:12;;;;;;;1.53;1.53;;;;;;;28.51;67.38;99612.53;5067153;28;20307;-74
2023/09/25 11:16:39;;;;;;;1.40;1.33;;;;;;;28.42;66.41;99603.75;5076059;28;20203;-69
2023/09/25 11:19:08;;;;;;;1.77;1.67;;;;;;;28.44;67.92;99601.75;5075449;28;20707;-74
2023/09/25 11:21:35;;;;;;;1.63;1.60;;;;;;;28.23;66.50;99592.56;5086440;28;20734;-68
2023/09/25 11:24:05;;;;;;;1.90;1.80;;;;;;;28.28;66.57;99600.81;5091476;28;20211;-71
2023/09/25 11:26:37;;;;;;;1.10;1.10;;;;;;;28.27;66.82;99601.81;5073599;28;20250;-72
2023/09/25 11:29:06;;;;;;;1.17;1.07;;;;;;;28.13;66.99;99598.75;5091151;28;20240;-69
2023/09/25 11:31:33;;;;;;;1.20;1.20;;;;;;;28.12;67.51;99581.28;5084822;28;20192;-69
2023/09/25 11:34:00;;;;;;;2.90;1.40;;;;;;;27.96;67.11;99586.38;5079660;28;20229;-71
2023/09/25 11:36:30;;;;;;;1.43;1.37;;;;;;;27.90;66.91;99584.34;5088168;28;20226;-69
2023/09/25 11:38:57;;;;;;;1.50;1.40;;;;;;;28.05;68.00;99582.84;5089134;28;20219;-71
2023/09/25 11:41:24;;;;;;;1.60;1.20;;;;;;;28.05;67.68;99590.75;5089461;28;20282;-75
2023/09/25 11:43:52;;;;;;;1.33;1.33;;;;;;;28.15;67.37;99586.22;5087196;28;20199;-74
2023/09/25 11:46:19;;;;;;;1.27;1.20;;;;;;;28.31;67.77;99587.31;5085342;28;20257;-69
2023/09/25 11:48:45;;;;;;;1.80;1.70;;;;;;;28.48;67.48;99599.66;5088673;28;20211;-71
2023/09/25 11:51:12;;;;;;;1.23;1.23;;;;;;;28.47;67.00;99590.91;5086008;28;20196;-69
2023/09/25 11:53:39;;;;;;;1.10;1.10;;;;;;;28.56;68.09;99589.16;5087639;28;20215;-68
2023/09/25 11:56:06;;;;;;;1.50;1.40;;;;;;;28.70;67.67;99591.22;5077612;28;20195;-71
2023/09/25 11:58:34;;;;;;;2.40;1.60;;;;;;;28.60;66.28;99567.56;5089836;28;20207;-69
2023/09/25 12:01:03;;;;;;;0.90;0.90;;;;;;;28.84;66.35;99588.00;5085470;28;20230;-72
2023/09/25 12:03:35;;;;;;;1.07;1.07;;;;;;;28.71;65.91;99590.25;5085260;28;20634;-70
2023/09/25 12:06:03;;;;;;;1.30;1.30;;;;;;;28.70;65.73;99572.75;5088748;28;20678;-68
2023/09/25 12:08:30;;;;;;;2.50;1.53;;;;;;;28.64;65.98;99573.34;5089056;28;20219;-68
2023/09/25 12:10:57;;;;;;;1.50;1.40;;;;;;;28.62;66.74;99573.53;5091720;28;20245;-68
2023/09/25 12:13:24;;;;;;;1.50;1.47;;;;;;;28.64;67.21;99570.72;5083419;28;20203;-67
2023/09/25 12:15:51;;;;;;;2.13;1.90;;;;;;;28.51;66.78;99576.44;5092498;28;20588;-67
2023/09/25 12:18:19;;;;;;;2.23;1.30;;;;;;;28.47;66.52;99576.88;5078885;28;20628;-69
2023/09/25 12:20:46;;;;;;;1.40;1.40;;;;;;;28.49;66.90;99585.47;5088304;28;20222;-68
2023/09/25 12:23:13;;;;;;;1.13;1.13;;;;;;;28.60;67.67;99579.94;5091505;28;20242;-67
2023/09/25 12:25:39;;;;;;;1.10;1.10;;;;;;;28.66;65.92;99568.78;5085499;28;20295;-68
2023/09/25 12:28:06;;;;;;;1.50;1.50;;;;;;;28.66;65.41;99569.59;5082666;28;20200;-68
2023/09/25 12:30:33;;;;;;;1.40;1.40;;;;;;;28.74;67.34;99573.28;5082699;28;20192;-68
2023/09/25 12:33:00;;;;;;;1.30;1.20;;;;;;;28.84;65.62;99568.72;5083694;28;20204;-67
2023/09/25 12:35:28;;;;;;;1.00;1.00;;;;;;;28.94;65.96;99567.59;5082706;28;20716;-68
2023/09/25 12:37:55;;;;;;;1.20;1.20;;;;;;;29.00;66.65;99566.13;5087401;28;20192;-67
2023/09/25 12:40:22;;;;;;;1.50;1.40;;;;;;;29.10;66.03;99565.03;5089684;28;20648;-67
2023/09/25 12:42:49;;;;;;;1.23;1.23;;;;;;;29.15;64.97;99560.06;5087091;28;20199;-67
2023/09/25 12:45:16;;;;;;;1.10;1.10;;;;;;;29.14;65.86;99563.69;5085024;28;20208;-67
2023/09/25 12:47:43;;;;;;;1.47;1.37;;;;;;;29.03;65.63;99553.44;5088656;28;20664;-69
2023/09/25 12:50:10;;;;;;;1.37;1.37;;;;;;;28.95;64.23;99553.41;5082898;28;20195;-68
2023/09/25 12:52:39;;;;;;;1.53;1.10;;;;;;;28.80;64.66;99557.63;5085175;28;20204;-67
2023/09/25 12:55:08;;;;;;;0.80;0.80;;;;;;;28.75;65.68;99552.03;5082952;28;20223;-68
2023/09/25 12:57:35;;;;;;;1.23;1.23;;;;;;;28.70;65.94;99538.47;5089788;28;20199;-69
2023/09/25 13:00:04;;;;;;;1.27;0.97;;;;;;;28.74;65.79;99553.00;5082818;28;20271;-70
2023/09/25 13:02:31;;;;;;;1.13;1.13;;;;;;;28.73;66.13;99555.78;5087996;28;20204;-70
2023/09/25 13:04:58;;;;;;;1.37;1.30;;;;;;;28.82;66.17;99553.00;5081069;28;20660;-71
2023/09/25 13:07:24;;;;;;;1.43;1.33;;;;;;;28.82;66.42;99547.75;5073974;28;20271;-67
2023/09/25 13:09:54;;;;;;;1.97;1.87;;;;;;;28.76;65.29;99547.56;5087462;28;20245;-67
2023/09/25 13:12:20;;;;;;;1.30;1.30;;;;;;;28.74;65.64;99550.34;5078747;28;20211;-68
2023/09/25 13:14:47;;;;;;;4.30;1.20;;;;;;;28.62;65.21;99546.31;5089058;28;20203;-69
2023/09/25 13:17:15;;;;;;;1.40;1.40;;;;;;;28.70;66.92;99542.91;5087463;28;20204;-69
2023/09/25 13:19:42;;;;;;;1.50;1.40;;;;;;;28.87;67.77;99537.56;5080156;28;20265;-68
2023/09/25 13:22:10;;;;;;;1.23;1.23;;;;;;;29.04;64.33;99541.91;5090587;28;20204;-70
2023/09/25 13:24:37;;;;;;;1.00;1.00;;;;;;;29.13;64.87;99535.66;5082807;28;20208;-69
2023/09/25 13:27:06;;;;;;;1.40;1.40;;;;;;;29.15;62.71;99538.97;5082139;28;20751;-68
2023/09/25 13:29:33;;;;;;;1.27;1.27;;;;;;;29.11;62.17;99534.97;5085647;28;20552;-69
2023/09/25 13:32:00;;;;;;;1.48;1.38;;;;;;;29.03;63.63;99534.97;5074771;28;20227;-68
2023/09/25 13:34:27;;;;;;;0.97;0.97;;;;;;;29.12;63.86;99539.28;5078047;28;20253;-67
2023/09/25 13:36:54;;;;;;;1.30;1.23;;;;;;;29.01;63.18;99541.41;5084324;28;20761;-64
2023/09/25 13:39:21;;;;;;;1.37;1.37;;;;;;;28.83;64.03;99532.75;5081796;28;20196;-64
2023/09/25 13:41:47;;;;;;;1.45;1.45;;;;;;;28.90;63.78;99534.59;5083761;28;20223;-64
2023/09/25 13:44:15;;;;;;;2.70;1.30;;;;;;;29.03;63.58;99529.69;5074787;28;20207;-65
2023/09/25 13:46:42;;;;;;;1.13;1.13;;;;;;;29.19;63.76;99529.72;5082931;28;20203;-64
2023/09/25 13:49:09;;;;;;;1.38;1.38;;;;;;;29.31;63.17;99526.78;5081483;28;20204;-65
2023/09/25 13:51:36;;;;;;;0.88;0.88;;;;;;;29.39;62.92;99529.47;5084889;28;20196;-65
2023/09/25 13:54:03;;;;;;;1.33;1.33;;;;;;;29.46;62.86;99531.31;5087896;28;20203;-65
2023/09/25 13:56:33;;;;;;;1.58;1.48;;;;;;;29.55;63.10;99532.97;5086993;28;20215;-64
2023/09/25 13:59:00;;;;;;;0.93;0.93;;;;;;;29.59;62.89;99525.53;5089859;28;20632;-65
2023/09/25 14:01:28;;;;;;;1.00;1.00;;;;;;;29.69;62.94;99536.78;5073078;28;20251;-65
2023/09/25 14:03:55;;;;;;;2.25;1.60;;;;;;;29.78;61.63;99533.13;5084780;28;20200;-66
2023/09/25 14:06:23;;;;;;;1.20;1.20;;;;;;;29.79;60.89;99526.84;5080480;28;20199;-65
2023/09/25 14:08:50;;;;;;;1.55;1.45;;;;;;;29.73;60.86;99532.78;5076363;28;20289;-65
2023/09/25 14:11:17;;;;;;;1.55;1.40;;;;;;;29.66;61.51;99532.63;5080996;28;20195;-65
2023/09/25 14:13:44;;;;;;;1.02;1.02;;;;;;;29.61;62.32;99529.66;5080566;28;20224;-65
2023/09/25 14:16:11;;;;;;;3.22;1.40;;;;;;;29.63;61.59;99526.84;5079816;28;20199;-64
2023/09/25 14:18:39;;;;;;;2.25;1.50;;;;;;;29.65;62.68;99524.88;5084331;28;20230;-65
2023/09/25 14:21:06;;;;;;;1.80;1.70;;;;;;;29.62;61.82;99509.34;5082291;28;20242;-65
2023/09/25 14:23:32;;;;;;;1.30;1.30;;;;;;;29.72;61.33;99523.22;5082172;28;20195;-65
2023/09/25 14:25:59;;;;;;;1.35;1.30;;;;;;;29.72;59.28;99525.88;5079116;28;20212;-65
2023/09/25 14:28:26;;;;;;;1.25;1.25;;;;;;;29.75;59.50;99525.53;5081103;28;20249;-65
2023/09/25 14:30:53;;;;;;;1.35;1.35;;;;;;;29.77;59.94;99523.53;5083515;28;20199;-64
2023/09/25 14:33:19;;;;;;;1.38;1.38;;;;;;;29.75;60.32;99517.63;5081149;28;20277;-64
2023/09/25 14:35:48;;;;;;;3.97;1.52;;;;;;;29.80;60.01;99510.00;5076405;28;20656;-64
2023/09/25 14:38:14;;;;;;;1.52;1.35;;;;;;;29.77;60.51;99505.03;5072745;28;20699;-64
2023/09/25 14:40:41;;;;;;;1.05;1.05;;;;;;;29.67;59.44;99510.50;5080190;28;20220;-67
2023/09/25 14:43:08;;;;;;;1.15;1.15;;;;;;;29.55;60.12;99503.06;5077000;28;20562;-64
2023/09/25 14:45:36;;;;;;;0.90;0.90;;;;;;;29.30;60.21;99506.69;5080217;28;20694;-65
2023/09/25 14:48:04;;;;;;;1.08;1.08;;;;;;;29.32;59.96;99502.88;5071164;28;20679;-64
2023/09/25 14:50:31;;;;;;;1.60;1.50;;;;;;;29.41;59.62;99499.25;5086258;28;20228;-64
2023/09/25 14:52:59;;;;;;;0.95;0.95;;;;;;;29.45;60.52;99497.13;5090482;28;20687;-64
2023/09/25 14:55:26;;;;;;;2.75;1.30;;;;;;;29.49;59.50;99503.72;5091384;28;20292;-64
2023/09/25 14:57:53;;;;;;;1.05;1.05;;;;;;;29.44;60.83;99500.75;5086453;28;20203;-65
2023/09/25 15:00:20;;;;;;;1.03;1.03;;;;;;;29.32;59.79;99508.16;5088381;28;20223;-64
2023/09/25 15:02:47;;;;;;;1.30;1.30;;;;;;;29.31;59.47;99505.66;5076058;28;20695;-64
2023/09/25 15:05:14;;;;;;;0.90;0.90;;;;;;;29.17;59.55;99502.66;5087374;28;20203;-64
2023/09/25 15:07:40;;;;;;;1.60;1.50;;;;;;;29.08;60.17;99510.75;5073774;28;20234;-65
2023/09/25 15:10:09;;;;;;;1.38;1.38;;;;;;;29.02;60.16;99512.19;5075262;28;20641;-64
2023/09/25 15:12:36;;;;;;;1.57;1.57;;;;;;;29.06;60.14;99508.25;5091331;28;20199;-64
2023/09/25 15:15:04;;;;;;;1.17;1.17;;;;;;;28.81;59.07;99495.13;5085692;28;20203;-66
2023/09/25 15:17:31;;;;;;;1.00;0.90;;;;;;;28.85;59.45;99507.03;5080361;28;20679;-64
2023/09/25 15:19:58;;;;;;;1.30;1.27;;;;;;;28.83;60.08;99511.63;5086905;28;20207;-64
2023/09/25 15:22:26;;;;;;;1.43;1.37;;;;;;;28.83;59.38;99520.38;5088719;28;20203;-64
2023/09/25 15:24:53;;;;;;;1.00;1.00;;;;;;;28.65;59.23;99517.84;5080105;28;20243;-66
2023/09/25 15:27:21;;;;;;;1.17;1.17;;;;;;;28.53;59.38;99513.78;5084540;28;20286;-64
2023/09/25 15:29:51;;;;;;;0.97;0.97;;;;;;;28.47;59.18;99511.78;5079978;28;20207;-65
2023/09/25 15:32:18;;;;;;;1.73;1.20;;;;;;;28.37;61.80;99512.88;5087736;28;20207;-65
2023/09/25 15:34:45;;;;;;;1.50;1.40;;;;;;;28.34;62.71;99514.00;5090596;28;21744;-64
2023/09/25 15:37:13;;;;;;;0.90;0.90;;;;;;;28.32;63.03;99513.34;5079117;28;20204;-64
2023/09/25 15:39:40;;;;;;;3.20;1.40;;;;;;;28.09;63.82;99515.69;5082027;28;20211;-65
2023/09/25 15:42:06;;;;;;;2.83;1.87;;;;;;;28.03;64.11;99513.63;5084288;28;20262;-65
2023/09/25 15:44:35;;;;;;;1.50;1.40;;;;;;;27.93;64.79;99518.16;5077968;28;20207;-65
2023/09/25 15:47:02;;;;;;;2.00;1.90;;;;;;;27.92;64.59;99527.03;5077357;28;20219;-64
2023/09/25 15:49:29;;;;;;;2.17;2.07;;;;;;;27.98;65.08;99530.91;5085607;28;20234;-64
2023/09/25 15:51:57;;;;;;;2.03;1.73;;;;;;;28.01;64.38;99525.31;5086144;28;20610;-64
2023/09/25 15:54:24;;;;;;;1.77;1.67;;;;;;;28.02;64.37;99532.22;5081541;28;20548;-64
2023/09/25 15:56:50;;;;;;;2.13;1.50;;;;;;;28.02;64.33;99533.06;5070085;28;20690;-64
2023/09/25 15:59:17;;;;;;;1.40;1.30;;;;;;;27.96;63.92;99525.75;5089688;28;20207;-64
2023/09/25 16:01:45;;;;;;;1.23;1.23;;;;;;;27.87;65.23;99526.69;5088548;28;20223;-64
2023/09/25 16:04:12;;;;;;;1.37;1.37;;;;;;;27.81;65.08;99527.31;5087757;28;20225;-63
2023/09/25 16:06:39;;;;;;;1.60;1.50;;;;;;;27.69;64.51;99535.59;5086051;28;20533;-63
2023/09/25 16:09:07;;;;;;;1.30;1.20;;;;;;;27.70;64.78;99527.53;5081380;28;20239;-65
2023/09/25 16:11:34;;;;;;;1.20;1.20;;;;;;;27.57;65.22;99532.34;5089948;28;20192;-70
2023/09/25 16:14:00;;;;;;;1.63;1.53;;;;;;;27.56;65.67;99530.72;5087510;28;20199;-70
2023/09/25 16:16:27;;;;;;;1.83;1.50;;;;;;;27.53;65.74;99531.81;5090792;28;20258;-69
2023/09/25 16:18:55;;;;;;;2.27;1.37;;;;;;;27.54;65.32;99532.66;5078939;28;20648;-71
2023/09/25 16:21:22;;;;;;;1.63;1.50;;;;;;;27.49;65.69;99530.50;5085745;28;20212;-70
2023/09/25 16:23:49;;;;;;;1.30;1.30;;;;;;;27.50;65.13;99533.94;5084350;28;20231;-69
2023/09/25 16:26:16;;;;;;;2.37;1.70;;;;;;;27.49;65.50;99540.19;5088367;28;20199;-69
2023/09/25 16:28:43;;;;;;;3.30;1.53;;;;;;;27.39;65.68;99542.03;5084482;28;20193;-69
2023/09/25 16:31:09;;;;;;;1.20;1.20;;;;;;;27.38;65.46;99537.72;5087408;28;20281;-71
2023/09/25 16:33:36;;;;;;;6.90;1.27;;;;;;;27.32;65.77;99538.34;5087364;28;20594;-69
2023/09/25 16:36:05;;;;;;;1.83;1.77;;;;;;;27.21;65.93;99542.00;5083183;28;20621;-70
2023/09/25 16:38:32;;;;;;;1.40;1.40;;;;;;;27.19;66.08;99546.59;5092999;28;20203;-70
2023/09/25 16:41:03;;;;;;;1.47;1.47;;;;;;;27.14;66.63;99538.31;5079983;28;20330;-70
2023/09/25 16:43:30;;;;;;;1.37;1.37;;;;;;;27.01;67.06;99536.00;5085116;28;20203;-69
2023/09/25 16:45:57;;;;;;;1.33;1.33;;;;;;;27.01;66.69;99548.38;5084700;28;20198;-68
2023/09/25 16:48:24;;;;;;;1.10;1.10;;;;;;;27.00;67.19;99554.59;5078685;28;20631;-69
2023/09/25 16:50:51;;;;;;;1.87;1.77;;;;;;;26.95;67.01;99562.91;5086353;28;20710;-69
2023/09/25 16:53:19;;;;;;;1.50;1.40;;;;;;;26.82;67.86;99572.16;5091601;28;20200;-68
2023/09/25 16:55:48;;;;;;;1.20;1.20;;;;;;;26.83;67.62;99585.13;5081837;28;20196;-69
2023/09/25 16:58:15;;;;;;;2.13;1.93;;;;;;;26.80;67.83;99585.41;5075913;28;20663;-70
2023/09/25 17:00:42;;;;;;;3.23;1.60;;;;;;;26.68;68.46;99576.03;5086931;28;20651;-69
2023/09/25 17:03:10;;;;;;;1.03;1.03;;;;;;;26.60;68.47;99578.53;5089783;28;20203;-68
2023/09/25 17:05:37;;;;;;;1.30;1.30;;;;;;;26.43;69.01;99582.75;5089129;28;20654;-69
2023/09/25 17:08:04;;;;;;;1.37;1.30;;;;;;;26.36;68.33;99583.47;5088145;28;20666;-70
2023/09/25 17:10:32;;;;;;;1.30;1.30;;;;;;;26.27;68.39;99592.22;5091634;28;20199;-71
2023/09/25 17:12:59;;;;;;;1.63;1.53;;;;;;;26.17;67.67;99588.75;5079150;28;20211;-70
2023/09/25 17:15:26;;;;;;;2.40;1.40;;;;;;;26.14;67.36;99591.63;5078036;28;20568;-71
2023/09/25 17:17:52;;;;;;;1.47;1.40;;;;;;;26.07;66.73;99586.13;5083743;28;20257;-71
2023/09/25 17:20:19;;;;;;;1.70;1.40;;;;;;;25.99;67.13;99602.56;5092224;28;20260;-70
2023/09/25 17:22:46;;;;;;;1.23;1.23;;;;;;;25.89;67.77;99599.09;5092038;28;20204;-70
2023/09/25 17:25:13;;;;;;;1.03;1.03;;;;;;;25.94;67.30;99602.16;5092418;28;20199;-69